Time;durP1;ratioP1;P1;durP2;ratioP2;P2;SDS_P1;SDS_P2;PMS_P1;PMS_P2;Temp;Humidity;BMP_temperature;BMP_pressure;BME280_temperature;BME280_humidity;BME280_pressure;Samples;Min_cycle;Max_cycle;Signal;HPM_P1;HPM_P2
2021/03/08 00:01:41;;;;;;;21.08;12.13;;;;;;;;;;5015188;28;20033;-48
2021/03/08 00:04:07;;;;;;;20.65;11.13;;;;;;;;;;5015184;28;20026;-45
2021/03/08 00:06:34;;;;;;;23.98;12.38;;;;;;;;;;5015226;28;20026;-47
2021/03/08 00:09:00;;;;;;;26.90;12.77;;;;;;;;;;5014770;28;20034;-47
2021/03/08 00:11:26;;;;;;;24.77;13.45;;;;;;;;;;5015103;28;20478;-45
2021/03/08 00:13:52;;;;;;;27.83;14.95;;;;;;;;;;5015251;28;20029;-45
2021/03/08 00:16:18;;;;;;;23.48;12.20;;;;;;;;;;5015008;28;20053;-49
2021/03/08 00:18:44;;;;;;;24.75;13.50;;;;;;;;;;5014815;28;20527;-51
2021/03/08 00:21:10;;;;;;;22.10;13.07;;;;;;;;;;5015003;28;20040;-51
2021/03/08 00:23:36;;;;;;;23.48;12.93;;;;;;;;;;5014812;28;20576;-48
2021/03/08 00:26:02;;;;;;;23.95;14.02;;;;;;;;;;5014824;28;20021;-49
2021/03/08 00:28:29;;;;;;;27.20;13.93;;;;;;;;;;5014763;28;20034;-47
2021/03/08 00:30:55;;;;;;;29.17;15.10;;;;;;;;;;5015111;28;20041;-48
2021/03/08 00:33:21;;;;;;;26.08;13.80;;;;;;;;;;5014860;28;20109;-53
2021/03/08 00:35:47;;;;;;;27.40;14.13;;;;;;;;;;5014608;28;20029;-47
2021/03/08 00:38:13;;;;;;;30.20;15.10;;;;;;;;;;5014693;28;20026;-53
2021/03/08 00:40:39;;;;;;;27.10;13.75;;;;;;;;;;5014354;28;20066;-45
2021/03/08 00:43:05;;;;;;;26.33;13.88;;;;;;;;;;5014599;28;20076;-52
2021/03/08 00:45:31;;;;;;;27.88;14.93;;;;;;;;;;5014479;28;20555;-49
2021/03/08 00:47:57;;;;;;;27.70;14.30;;;;;;;;;;5014378;28;20160;-51
2021/03/08 00:50:25;;;;;;;28.33;15.32;;;;;;;;;;5014728;28;20026;-52
2021/03/08 00:52:51;;;;;;;29.52;14.65;;;;;;;;;;5014353;28;20112;-47
2021/03/08 00:55:18;;;;;;;29.08;14.75;;;;;;;;;;5014131;28;20484;-48
2021/03/08 00:57:44;;;;;;;26.02;12.95;;;;;;;;;;5014352;28;20151;-49
2021/03/08 01:00:11;;;;;;;24.50;12.77;;;;;;;;;;5014172;28;20026;-47
2021/03/08 01:02:38;;;;;;;31.63;13.65;;;;;;;;;;5014212;28;20102;-47
2021/03/08 01:05:05;;;;;;;24.13;12.32;;;;;;;;;;5014154;28;20029;-45
2021/03/08 01:07:31;;;;;;;24.48;12.63;;;;;;;;;;5013953;28;20112;-47
2021/03/08 01:09:57;;;;;;;21.08;12.10;;;;;;;;;;5012652;28;20046;-47
2021/03/08 01:12:23;;;;;;;22.48;12.10;;;;;;;;;;5014116;28;20103;-46
2021/03/08 01:14:49;;;;;;;24.45;13.13;;;;;;;;;;5013935;28;20072;-47
2021/03/08 01:17:16;;;;;;;26.05;13.45;;;;;;;;;;5013774;28;20036;-50
2021/03/08 01:19:42;;;;;;;22.95;12.98;;;;;;;;;;5013782;28;20026;-48
2021/03/08 01:22:08;;;;;;;22.50;12.73;;;;;;;;;;5013754;28;20080;-47
2021/03/08 01:24:34;;;;;;;29.10;12.77;;;;;;;;;;5013551;28;20030;-50
2021/03/08 01:27:00;;;;;;;30.50;14.27;;;;;;;;;;5013603;28;20032;-49
2021/03/08 01:29:26;;;;;;;26.85;14.23;;;;;;;;;;5013706;28;20030;-48
2021/03/08 01:31:52;;;;;;;24.35;14.18;;;;;;;;;;5013822;28;20438;-50
2021/03/08 01:34:18;;;;;;;28.23;14.47;;;;;;;;;;5013478;28;20053;-49
2021/03/08 01:36:44;;;;;;;35.05;17.30;;;;;;;;;;5013484;28;20038;-46
2021/03/08 01:39:11;;;;;;;31.42;15.75;;;;;;;;;;5013469;28;20022;-51
2021/03/08 01:41:37;;;;;;;34.80;16.40;;;;;;;;;;5013245;28;20461;-45
2021/03/08 01:44:03;;;;;;;34.35;16.08;;;;;;;;;;5013310;28;20113;-47
2021/03/08 01:46:29;;;;;;;34.50;16.57;;;;;;;;;;5272654;22;20279;-46
2021/03/08 01:48:55;;;;;;;28.20;14.05;;;;;;;;;;5012541;28;20030;-47
2021/03/08 01:51:22;;;;;;;27.90;13.93;;;;;;;;;;5012920;28;20030;-45
2021/03/08 01:53:48;;;;;;;29.13;13.97;;;;;;;;;;5012428;28;20030;-46
2021/03/08 01:56:15;;;;;;;30.80;14.40;;;;;;;;;;5012437;28;20469;-46
2021/03/08 01:58:41;;;;;;;24.53;13.37;;;;;;;;;;5012432;28;20028;-47
2021/03/08 02:01:07;;;;;;;23.23;12.40;;;;;;;;;;5012372;28;20034;-50
2021/03/08 02:03:33;;;;;;;23.93;12.83;;;;;;;;;;5012186;28;20014;-50
2021/03/08 02:06:00;;;;;;;26.00;13.10;;;;;;;;;;5012346;28;20017;-49
2021/03/08 02:08:26;;;;;;;26.80;13.70;;;;;;;;;;5012395;28;20366;-50
2021/03/08 02:10:52;;;;;;;28.87;15.47;;;;;;;;;;5012325;28;20036;-55
2021/03/08 02:13:24;;;;;;;26.93;15.27;;;;;;;;;;5012166;28;20053;-51
2021/03/08 02:16:14;;;;;;;27.90;13.63;;;;;;;;;;5012086;28;20041;-48
2021/03/08 02:18:59;;;;;;;33.60;15.93;;;;;;;;;;5011927;28;20022;-48
2021/03/08 02:21:28;;;;;;;24.43;13.33;;;;;;;;;;5012130;28;20105;-47
2021/03/08 02:24:13;;;;;;;25.57;12.07;;;;;;;;;;5012379;28;20373;-50
2021/03/08 02:26:46;;;;;;;24.87;12.73;;;;;;;;;;5011923;28;20554;-46
2021/03/08 02:29:22;;;;;;;25.70;13.33;;;;;;;;;;5011931;28;20034;-50
2021/03/08 02:31:50;;;;;;;27.40;12.67;;;;;;;;;;5011717;28;20377;-49
2021/03/08 02:34:21;;;;;;;26.03;13.07;;;;;;;;;;5011856;28;20101;-48
2021/03/08 02:36:50;;;;;;;24.80;13.67;;;;;;;;;;5012061;28;20028;-46
2021/03/08 02:39:33;;;;;;;28.13;14.70;;;;;;;;;;5011849;28;20044;-47
2021/03/08 02:42:00;;;;;;;27.17;13.48;;;;;;;;;;5011809;28;20058;-45
2021/03/08 02:44:29;;;;;;;26.53;13.50;;;;;;;;;;5011836;28;20354;-47
2021/03/08 02:46:56;;;;;;;31.23;15.57;;;;;;;;;;5011627;28;20060;-45
2021/03/08 02:49:22;;;;;;;30.37;13.97;;;;;;;;;;5011642;28;20034;-48
2021/03/08 02:51:57;;;;;;;30.73;16.43;;;;;;;;;;5011598;28;20492;-48
2021/03/08 02:54:25;;;;;;;30.13;15.23;;;;;;;;;;5011994;28;20048;-50
2021/03/08 02:56:52;;;;;;;32.03;15.73;;;;;;;;;;5011566;28;20045;-47
2021/03/08 02:59:20;;;;;;;35.60;16.55;;;;;;;;;;5011727;28;20108;-47
2021/03/08 03:01:46;;;;;;;35.43;16.30;;;;;;;;;;5011619;28;20423;-49
2021/03/08 03:04:13;;;;;;;38.13;17.00;;;;;;;;;;5011661;28;20140;-47
2021/03/08 03:06:40;;;;;;;30.77;15.43;;;;;;;;;;5011434;28;20564;-48
2021/03/08 03:09:09;;;;;;;30.90;15.73;;;;;;;;;;5011633;28;20117;-49
2021/03/08 03:11:37;;;;;;;35.43;15.03;;;;;;;;;;5011472;28;20366;-48
2021/03/08 03:14:03;;;;;;;33.33;15.80;;;;;;;;;;5011500;28;20069;-49
2021/03/08 03:16:30;;;;;;;31.03;15.67;;;;;;;;;;5011610;28;20469;-46
2021/03/08 03:18:57;;;;;;;34.40;16.80;;;;;;;;;;5011380;28;20432;-47
2021/03/08 03:21:27;;;;;;;34.53;16.17;;;;;;;;;;5011428;28;20029;-45
2021/03/08 03:23:54;;;;;;;40.40;19.00;;;;;;;;;;5011347;28;20030;-45
2021/03/08 03:26:21;;;;;;;45.40;20.17;;;;;;;;;;5011565;28;20072;-51
2021/03/08 03:28:48;;;;;;;49.27;22.23;;;;;;;;;;5011534;28;20034;-47
2021/03/08 03:31:15;;;;;;;35.83;17.00;;;;;;;;;;5011514;28;20084;-45
2021/03/08 03:33:42;;;;;;;38.50;18.10;;;;;;;;;;5013613;28;20030;-46
2021/03/08 03:36:08;;;;;;;74.73;25.13;;;;;;;;;;5015080;28;20030;-46
2021/03/08 03:38:35;;;;;;;216.50;49.50;;;;;;;;;;5014959;28;20058;-49
2021/03/08 03:41:02;;;;;;;66.40;23.97;;;;;;;;;;5015183;28;20368;-49
2021/03/08 03:43:28;;;;;;;33.17;14.40;;;;;;;;;;5014995;28;20026;-48
2021/03/08 03:45:54;;;;;;;27.47;14.87;;;;;;;;;;5014914;28;20033;-49
2021/03/08 03:48:20;;;;;;;26.40;13.80;;;;;;;;;;5014383;28;20054;-47
2021/03/08 03:50:46;;;;;;;31.60;16.17;;;;;;;;;;5015064;28;20037;-48
2021/03/08 03:53:12;;;;;;;38.47;16.50;;;;;;;;;;5014937;28;20370;-49
2021/03/08 03:55:39;;;;;;;112.93;31.87;;;;;;;;;;5014628;28;20100;-48
2021/03/08 03:58:18;;;;;;;148.30;39.90;;;;;;;;;;5014816;28;20384;-45
2021/03/08 04:00:57;;;;;;;108.53;33.10;;;;;;;;;;5014474;28;20034;-47
2021/03/08 04:03:30;;;;;;;65.87;23.63;;;;;;;;;;5014352;28;20104;-48
2021/03/08 04:05:58;;;;;;;52.93;20.77;;;;;;;;;;5014488;28;20030;-46
2021/03/08 04:08:25;;;;;;;48.90;21.33;;;;;;;;;;5014650;28;20116;-48
2021/03/08 04:10:52;;;;;;;43.57;19.97;;;;;;;;;;5014372;28;20044;-51
2021/03/08 04:13:18;;;;;;;38.93;20.03;;;;;;;;;;5014665;28;20022;-48
2021/03/08 04:15:45;;;;;;;37.87;16.57;;;;;;;;;;5014320;28;20469;-49
2021/03/08 04:18:12;;;;;;;34.70;15.83;;;;;;;;;;5014191;28;20049;-48
2021/03/08 04:20:38;;;;;;;30.40;14.50;;;;;;;;;;5014142;28;20025;-47
2021/03/08 04:23:06;;;;;;;27.00;14.37;;;;;;;;;;5014173;28;20022;-46
2021/03/08 04:25:33;;;;;;;28.30;13.53;;;;;;;;;;5014328;28;20030;-52
2021/03/08 04:28:00;;;;;;;31.07;15.30;;;;;;;;;;5014113;28;20029;-47
2021/03/08 04:30:26;;;;;;;50.17;22.57;;;;;;;;;;5014300;28;20101;-47
2021/03/08 04:32:54;;;;;;;56.20;19.43;;;;;;;;;;5013833;28;20036;-53
2021/03/08 04:35:22;;;;;;;39.40;16.87;;;;;;;;;;5013891;28;20029;-48
2021/03/08 04:37:49;;;;;;;30.60;15.20;;;;;;;;;;5013917;28;20053;-46
2021/03/08 04:40:15;;;;;;;32.40;15.13;;;;;;;;;;5013830;28;20064;-46
2021/03/08 04:42:42;;;;;;;38.10;16.37;;;;;;;;;;5013740;28;20076;-47
2021/03/08 04:45:09;;;;;;;52.80;18.73;;;;;;;;;;5013412;28;20030;-47
2021/03/08 04:47:36;;;;;;;52.80;18.47;;;;;;;;;;5013464;28;20054;-47
2021/03/08 04:50:04;;;;;;;48.17;18.57;;;;;;;;;;5013675;28;20029;-48
2021/03/08 04:52:30;;;;;;;40.73;19.83;;;;;;;;;;5013604;28;20030;-48
2021/03/08 04:54:56;;;;;;;42.30;19.20;;;;;;;;;;5013508;28;20068;-45
2021/03/08 04:57:22;;;;;;;45.60;19.00;;;;;;;;;;5013566;28;20022;-48
2021/03/08 04:59:50;;;;;;;52.23;20.60;;;;;;;;;;5013449;28;20034;-48
2021/03/08 05:02:18;;;;;;;50.73;20.53;;;;;;;;;;5013423;28;20026;-46
2021/03/08 05:04:46;;;;;;;48.70;19.03;;;;;;;;;;5013235;28;20473;-48
2021/03/08 05:07:14;;;;;;;35.63;15.60;;;;;;;;;;5013488;28;20042;-51
2021/03/08 05:09:40;;;;;;;33.97;15.80;;;;;;;;;;5013303;28;20073;-47
2021/03/08 05:12:07;;;;;;;43.47;19.83;;;;;;;;;;4995877;28;20485;-50
2021/03/08 05:14:34;;;;;;;31.30;17.00;;;;;;;;;;5013539;28;20022;-45
2021/03/08 05:17:00;;;;;;;46.93;20.13;;;;;;;;;;5013168;28;20030;-46
2021/03/08 05:19:27;;;;;;;42.83;18.70;;;;;;;;;;5012976;28;20033;-48
2021/03/08 05:21:54;;;;;;;48.30;19.27;;;;;;;;;;5012943;28;20113;-47
2021/03/08 05:24:20;;;;;;;61.03;21.87;;;;;;;;;;5013025;28;20079;-47
2021/03/08 05:26:47;;;;;;;60.93;21.93;;;;;;;;;;5013009;28;20076;-49
2021/03/08 05:29:13;;;;;;;49.37;21.03;;;;;;;;;;5012844;28;20034;-50
2021/03/08 05:31:41;;;;;;;43.43;19.73;;;;;;;;;;5012991;28;20030;-50
2021/03/08 05:34:07;;;;;;;33.77;17.00;;;;;;;;;;5012882;28;20032;-48
2021/03/08 05:36:34;;;;;;;35.67;17.63;;;;;;;;;;5013156;28;20072;-50
2021/03/08 05:39:01;;;;;;;34.70;16.87;;;;;;;;;;5012758;28;20021;-46
2021/03/08 05:41:46;;;;;;;41.60;20.07;;;;;;;;;;5012787;28;20509;-48
2021/03/08 05:44:13;;;;;;;49.63;22.17;;;;;;;;;;5012725;28;20088;-48
2021/03/08 05:46:44;;;;;;;49.73;20.97;;;;;;;;;;5012399;28;20405;-54
2021/03/08 05:49:16;;;;;;;35.63;19.20;;;;;;;;;;5012670;28;20034;-47
2021/03/08 05:51:58;;;;;;;42.23;20.10;;;;;;;;;;5012562;28;20041;-47
2021/03/08 05:54:30;;;;;;;40.70;18.63;;;;;;;;;;5012463;28;20029;-48
2021/03/08 05:57:07;;;;;;;46.13;21.60;;;;;;;;;;5011950;28;20030;-48
2021/03/08 05:59:52;;;;;;;81.37;31.67;;;;;;;;;;5012506;28;20037;-45
2021/03/08 06:02:37;;;;;;;48.00;24.03;;;;;;;;;;5012438;28;20025;-47
2021/03/08 06:05:18;;;;;;;44.90;22.43;;;;;;;;;;5012455;28;20108;-48
2021/03/08 06:08:10;;;;;;;47.23;23.30;;;;;;;;;;5012246;28;20131;-47
2021/03/08 06:10:41;;;;;;;42.37;22.13;;;;;;;;;;4982492;28;20117;-47
2021/03/08 06:13:10;;;;;;;42.33;21.00;;;;;;;;;;5012388;28;20033;-50
2021/03/08 06:15:37;;;;;;;37.20;20.03;;;;;;;;;;5012441;28;20041;-47
2021/03/08 06:18:09;;;;;;;48.07;22.53;;;;;;;;;;5012066;28;20022;-45
2021/03/08 06:20:36;;;;;;;44.03;21.27;;;;;;;;;;5012030;28;20083;-48
2021/03/08 06:23:03;;;;;;;52.20;25.77;;;;;;;;;;5012106;28;20029;-48
2021/03/08 06:25:32;;;;;;;47.22;25.65;;;;;;;;;;5011187;28;20021;-47
2021/03/08 06:27:58;;;;;;;64.68;30.73;;;;;;;;;;4992773;28;20033;-46
2021/03/08 06:30:27;;;;;;;57.73;28.93;;;;;;;;;;5011860;28;20028;-48
2021/03/08 06:32:54;;;;;;;66.05;29.35;;;;;;;;;;5029908;28;20030;-47
2021/03/08 06:35:20;;;;;;;71.10;29.00;;;;;;;;;;5011138;28;20029;-47
2021/03/08 06:37:46;;;;;;;62.35;25.15;;;;;;;;;;5027479;28;20477;-48
2021/03/08 06:40:15;;;;;;;49.03;21.45;;;;;;;;;;5028795;28;20021;-47
2021/03/08 06:42:42;;;;;;;44.28;19.55;;;;;;;;;;5018839;28;20112;-47
2021/03/08 06:45:08;;;;;;;39.58;17.98;;;;;;;;;;5021441;28;20108;-48
2021/03/08 06:47:35;;;;;;;41.10;19.13;;;;;;;;;;5011140;28;20054;-51
2021/03/08 06:50:01;;;;;;;39.97;18.80;;;;;;;;;;5012035;28;20034;-48
2021/03/08 06:52:39;;;;;;;43.10;20.08;;;;;;;;;;5024220;28;20033;-49
2021/03/08 06:55:05;;;;;;;34.65;17.60;;;;;;;;;;5017134;28;20028;-49
2021/03/08 06:57:32;;;;;;;27.60;15.00;;;;;;;;;;5011090;28;20044;-49
2021/03/08 07:00:12;;;;;;;28.48;13.77;;;;;;;;;;5010870;28;20453;-54
2021/03/08 07:02:42;;;;;;;26.58;13.90;;;;;;;;;;5028973;28;20026;-46
2021/03/08 07:05:09;;;;;;;28.52;15.77;;;;;;;;;;5013964;28;20026;-50
2021/03/08 07:07:53;;;;;;;30.52;15.57;;;;;;;;;;5012559;28;20034;-48
2021/03/08 07:10:32;;;;;;;37.72;17.23;;;;;;;;;;5015161;28;20025;-49
2021/03/08 07:12:58;;;;;;;34.10;17.35;;;;;;;;;;5010205;28;20030;-50
2021/03/08 07:15:24;;;;;;;30.60;15.40;;;;;;;;;;4997748;28;20389;-48
2021/03/08 07:17:50;;;;;;;41.78;16.85;;;;;;;;;;5015610;28;20441;-45
2021/03/08 07:20:17;;;;;;;34.20;16.30;;;;;;;;;;5015598;28;20028;-45
2021/03/08 07:22:44;;;;;;;33.15;14.40;;;;;;;;;;5015858;28;20113;-47
2021/03/08 07:25:25;;;;;;;30.15;15.00;;;;;;;;;;5015993;28;20060;-48
2021/03/08 07:27:51;;;;;;;29.52;13.48;;;;;;;;;;5012880;28;20040;-46
2021/03/08 07:30:18;;;;;;;25.45;15.18;;;;;;;;;;5015655;28;20121;-49
2021/03/08 07:33:11;;;;;;;26.25;13.02;;;;;;;;;;5015943;28;20353;-46
2021/03/08 07:35:41;;;;;;;28.88;14.73;;;;;;;;;;5012818;28;20037;-44
2021/03/08 07:38:08;;;;;;;26.27;12.88;;;;;;;;;;5015864;28;20080;-45
2021/03/08 07:40:35;;;;;;;25.65;13.75;;;;;;;;;;5015661;28;20040;-43
2021/03/08 07:43:01;;;;;;;26.67;14.63;;;;;;;;;;5014818;28;20044;-45
2021/03/08 07:45:40;;;;;;;26.95;14.02;;;;;;;;;;4998484;28;20476;-48
2021/03/08 07:48:10;;;;;;;23.05;13.57;;;;;;;;;;5013361;28;20112;-45
2021/03/08 07:50:36;;;;;;;21.55;12.32;;;;;;;;;;5015289;28;20100;-45
2021/03/08 07:53:02;;;;;;;24.33;13.27;;;;;;;;;;5014729;28;20092;-46
2021/03/08 07:55:38;;;;;;;22.38;11.80;;;;;;;;;;5014691;28;20034;-46
2021/03/08 07:58:04;;;;;;;27.80;13.63;;;;;;;;;;5015179;28;20034;-50
2021/03/08 08:00:31;;;;;;;23.17;12.10;;;;;;;;;;5014881;28;20052;-45
2021/03/08 08:02:58;;;;;;;21.85;10.90;;;;;;;;;;5015486;28;20052;-49
2021/03/08 08:05:24;;;;;;;18.60;10.82;;;;;;;;;;5014438;28;20074;-47
2021/03/08 08:07:52;;;;;;;21.92;11.80;;;;;;;;;;5014727;28;20339;-45
2021/03/08 08:10:19;;;;;;;21.48;11.63;;;;;;;;;;5014693;28;20133;-45
2021/03/08 08:12:47;;;;;;;24.05;12.23;;;;;;;;;;5020025;28;20108;-47
2021/03/08 08:15:16;;;;;;;19.13;11.13;;;;;;;;;;5024385;28;20033;-44
2021/03/08 08:17:42;;;;;;;20.98;12.35;;;;;;;;;;5017281;28;20176;-45
2021/03/08 08:20:10;;;;;;;19.17;11.65;;;;;;;;;;5014129;28;20026;-53
2021/03/08 08:22:36;;;;;;;18.50;11.20;;;;;;;;;;5014764;28;20045;-44
2021/03/08 08:25:04;;;;;;;18.58;11.95;;;;;;;;;;5014464;28;20029;-47
2021/03/08 08:27:31;;;;;;;21.52;11.75;;;;;;;;;;5019847;28;20120;-45
2021/03/08 08:30:00;;;;;;;21.15;11.07;;;;;;;;;;5024421;28;20034;-46
2021/03/08 08:32:27;;;;;;;20.05;12.25;;;;;;;;;;5019523;28;20350;-46
2021/03/08 08:34:53;;;;;;;20.75;12.13;;;;;;;;;;5022882;28;20022;-47
2021/03/08 08:37:20;;;;;;;22.67;12.27;;;;;;;;;;5022564;28;20235;-48
2021/03/08 08:39:52;;;;;;;20.90;11.55;;;;;;;;;;5024950;28;20032;-46
2021/03/08 08:42:22;;;;;;;19.98;11.05;;;;;;;;;;5034075;28;20026;-46
2021/03/08 08:44:49;;;;;;;20.55;11.00;;;;;;;;;;5034482;28;20048;-50
2021/03/08 08:47:23;;;;;;;19.40;12.25;;;;;;;;;;5033982;28;20049;-45
2021/03/08 08:49:50;;;;;;;18.88;10.80;;;;;;;;;;5034069;28;20026;-45
2021/03/08 08:52:17;;;;;;;19.77;11.88;;;;;;;;;;5034361;28;20361;-46
2021/03/08 08:54:50;;;;;;;18.80;11.48;;;;;;;;;;5034263;28;20028;-45
2021/03/08 08:57:19;;;;;;;19.27;10.88;;;;;;;;;;5019182;28;20037;-45
2021/03/08 08:59:49;;;;;;;18.83;10.35;;;;;;;;;;5014262;28;20029;-46
2021/03/08 09:02:29;;;;;;;19.70;11.40;;;;;;;;;;5014350;28;20025;-45
2021/03/08 09:04:55;;;;;;;18.13;10.98;;;;;;;;;;5014410;28;20492;-46
2021/03/08 09:07:21;;;;;;;20.98;11.30;;;;;;;;;;5013926;28;20030;-46
2021/03/08 09:09:48;;;;;;;24.77;11.65;;;;;;;;;;5013958;28;20033;-47
2021/03/08 09:12:34;;;;;;;16.98;10.50;;;;;;;;;;5013985;28;20041;-45
2021/03/08 09:15:02;;;;;;;19.33;10.95;;;;;;;;;;5013566;28;20026;-47
2021/03/08 09:17:43;;;;;;;19.27;10.98;;;;;;;;;;5014090;28;20420;-47
2021/03/08 09:20:09;;;;;;;18.40;10.55;;;;;;;;;;5014220;28;20046;-47
2021/03/08 09:22:35;;;;;;;19.52;11.55;;;;;;;;;;5013842;28;20030;-47
2021/03/08 09:25:01;;;;;;;18.52;11.05;;;;;;;;;;5013782;28;20054;-46
2021/03/08 09:27:34;;;;;;;17.15;10.93;;;;;;;;;;5013618;28;20416;-49
2021/03/08 09:30:00;;;;;;;;;;;;;;;;;;5013287;28;20030;-50
2021/03/08 09:32:26;;;;;;;16.77;10.05;;;;;;;;;;5013806;28;20007;-47
2021/03/08 09:34:53;;;;;;;18.77;10.73;;;;;;;;;;5013659;28;20037;-47
2021/03/08 09:37:19;;;;;;;17.17;10.90;;;;;;;;;;5013354;28;20539;-51
2021/03/08 09:39:53;;;;;;;18.08;10.20;;;;;;;;;;5013529;28;20543;-46
2021/03/08 09:42:20;;;;;;;19.70;11.20;;;;;;;;;;5013152;28;20025;-47
2021/03/08 09:44:47;;;;;;;15.52;10.05;;;;;;;;;;5013437;28;20057;-52
2021/03/08 09:47:13;;;;;;;16.38;10.88;;;;;;;;;;5012669;28;20049;-47
2021/03/08 09:49:46;;;;;;;18.77;10.90;;;;;;;;;;5012952;28;20116;-48
2021/03/08 09:52:12;;;;;;;17.25;10.05;;;;;;;;;;5012558;28;20425;-50
2021/03/08 09:54:45;;;;;;;17.48;10.70;;;;;;;;;;5011967;28;20040;-51
2021/03/08 09:57:12;;;;;;;19.77;11.38;;;;;;;;;;5012116;28;20021;-53
2021/03/08 09:59:57;;;;;;;22.95;12.43;;;;;;;;;;5012885;28;20026;-50
2021/03/08 10:02:23;;;;;;;15.00;9.60;;;;;;;;;;5008471;28;20081;-48
2021/03/08 10:04:55;;;;;;;17.35;10.43;;;;;;;;;;5009810;28;20221;-47
2021/03/08 10:07:23;;;;;;;18.23;10.60;;;;;;;;;;5010810;28;20026;-48
2021/03/08 10:09:50;;;;;;;17.95;11.38;;;;;;;;;;5012842;28;20030;-46
2021/03/08 10:12:23;;;;;;;17.75;10.65;;;;;;;;;;5012776;28;20032;-51
2021/03/08 10:14:58;;;;;;;14.88;10.18;;;;;;;;;;5012869;28;20022;-49
2021/03/08 10:17:25;;;;;;;16.15;10.85;;;;;;;;;;5012439;28;20030;-46
2021/03/08 10:19:58;;;;;;;15.77;10.00;;;;;;;;;;5013052;28;20026;-50
2021/03/08 10:22:37;;;;;;;17.65;10.18;;;;;;;;;;5012537;28;20022;-50
2021/03/08 10:25:20;;;;;;;20.08;10.60;;;;;;;;;;5012803;28;20034;-49
2021/03/08 10:27:46;;;;;;;16.13;10.60;;;;;;;;;;5012425;28;20536;-47
2021/03/08 10:30:14;;;;;;;13.85;8.95;;;;;;;;;;5012967;28;20116;-45
2021/03/08 10:32:41;;;;;;;17.58;9.52;;;;;;;;;;5012754;28;20056;-45
2021/03/08 10:35:07;;;;;;;16.27;10.45;;;;;;;;;;5012796;28;20034;-44
2021/03/08 10:37:34;;;;;;;16.00;9.95;;;;;;;;;;5012421;28;20032;-44
2021/03/08 10:40:00;;;;;;;19.55;10.52;;;;;;;;;;5012431;28;20026;-46
2021/03/08 10:42:26;;;;;;;16.15;10.05;;;;;;;;;;5012217;28;20088;-44
2021/03/08 10:44:52;;;;;;;19.38;11.68;;;;;;;;;;5012549;28;20026;-44
2021/03/08 10:47:19;;;;;;;16.85;10.48;;;;;;;;;;5012280;28;20046;-44
2021/03/08 10:49:49;;;;;;;15.88;10.00;;;;;;;;;;5012599;28;20034;-44
2021/03/08 10:52:15;;;;;;;17.58;10.65;;;;;;;;;;5012551;28;20349;-45
2021/03/08 10:54:41;;;;;;;23.35;12.10;;;;;;;;;;5012444;28;20026;-45
2021/03/08 10:57:07;;;;;;;19.67;11.77;;;;;;;;;;5012561;28;20426;-49
2021/03/08 10:59:33;;;;;;;19.40;11.85;;;;;;;;;;5021661;28;20346;-44
2021/03/08 11:02:03;;;;;;;20.45;11.93;;;;;;;;;;5032109;28;20108;-44
2021/03/08 11:04:30;;;;;;;20.67;12.05;;;;;;;;;;5031614;28;20033;-45
2021/03/08 11:06:56;;;;;;;19.48;11.75;;;;;;;;;;5031473;28;20034;-46
2021/03/08 11:09:28;;;;;;;18.58;11.68;;;;;;;;;;5032187;28;20055;-46
2021/03/08 11:11:55;;;;;;;21.13;12.70;;;;;;;;;;5031870;28;20029;-44
2021/03/08 11:14:21;;;;;;;25.65;13.57;;;;;;;;;;5032397;28;20093;-44
2021/03/08 11:16:57;;;;;;;21.50;13.43;;;;;;;;;;5031764;28;20460;-43
2021/03/08 11:19:30;;;;;;;18.13;11.05;;;;;;;;;;5032273;28;20023;-44
2021/03/08 11:22:07;;;;;;;18.52;11.15;;;;;;;;;;5031166;28;20033;-44
2021/03/08 11:24:52;;;;;;;18.08;9.05;;;;;;;;;;5031762;28;20034;-48
2021/03/08 11:27:23;;;;;;;19.85;11.70;;;;;;;;;;5031565;28;20423;-45
2021/03/08 11:29:58;;;;;;;25.02;13.68;;;;;;;;;;5032014;28;20052;-44
2021/03/08 11:32:25;;;;;;;24.15;11.80;;;;;;;;;;5031889;28;20029;-45
2021/03/08 11:34:52;;;;;;;19.73;10.55;;;;;;;;;;5032164;28;20037;-46
2021/03/08 11:37:19;;;;;;;17.25;10.13;;;;;;;;;;5031565;28;20025;-44
2021/03/08 11:39:46;;;;;;;18.35;10.20;;;;;;;;;;5031891;28;20026;-44
2021/03/08 11:42:12;;;;;;;18.77;11.38;;;;;;;;;;5031685;28;20084;-45
2021/03/08 11:44:39;;;;;;;18.60;9.00;;;;;;;;;;5023165;28;20428;-50
2021/03/08 11:47:06;;;;;;;15.45;8.75;;;;;;;;;;5011428;28;20046;-44
2021/03/08 11:49:32;;;;;;;15.75;8.88;;;;;;;;;;5011854;28;20416;-45
2021/03/08 11:51:59;;;;;;;16.92;9.40;;;;;;;;;;5011877;28;20054;-49
2021/03/08 11:54:25;;;;;;;18.65;10.40;;;;;;;;;;5013904;28;20116;-44
2021/03/08 11:56:51;;;;;;;16.13;8.65;;;;;;;;;;5015583;28;20037;-43
2021/03/08 11:59:18;;;;;;;14.13;8.00;;;;;;;;;;5015507;28;20026;-44
2021/03/08 12:01:44;;;;;;;17.42;10.98;;;;;;;;;;5015386;28;20070;-44
2021/03/08 12:04:10;;;;;;;21.77;10.38;;;;;;;;;;5015315;28;20109;-44
2021/03/08 12:06:36;;;;;;;20.77;11.10;;;;;;;;;;5015347;28;20029;-45
2021/03/08 12:09:02;;;;;;;18.13;10.80;;;;;;;;;;5015318;28;20037;-45
2021/03/08 12:11:28;;;;;;;18.58;10.15;;;;;;;;;;5015561;28;20357;-45
2021/03/08 12:13:54;;;;;;;13.63;8.90;;;;;;;;;;5015677;28;20049;-45
2021/03/08 12:16:21;;;;;;;20.30;11.20;;;;;;;;;;5015466;28;20025;-45
2021/03/08 12:18:47;;;;;;;23.58;13.00;;;;;;;;;;5015286;28;20141;-44
2021/03/08 12:21:14;;;;;;;22.98;13.65;;;;;;;;;;5015022;28;20033;-43
2021/03/08 12:23:40;;;;;;;22.50;14.13;;;;;;;;;;5014925;28;20079;-45
2021/03/08 12:26:06;;;;;;;22.00;13.68;;;;;;;;;;5015065;28;20018;-45
2021/03/08 12:28:32;;;;;;;20.92;12.95;;;;;;;;;;5015099;28;20127;-47
2021/03/08 12:30:58;;;;;;;20.45;11.50;;;;;;;;;;5015389;28;20362;-44
2021/03/08 12:33:24;;;;;;;17.58;11.57;;;;;;;;;;5015339;28;20029;-46
2021/03/08 12:35:50;;;;;;;21.13;12.90;;;;;;;;;;5015295;28;20478;-44
2021/03/08 12:38:17;;;;;;;20.95;11.82;;;;;;;;;;5014635;28;20036;-44
2021/03/08 12:40:43;;;;;;;21.00;12.18;;;;;;;;;;5014790;28;20133;-43
2021/03/08 12:43:09;;;;;;;23.35;13.55;;;;;;;;;;5015040;28;20100;-44
2021/03/08 12:45:35;;;;;;;24.05;15.05;;;;;;;;;;5014619;28;20034;-48
2021/03/08 12:48:01;;;;;;;22.30;13.00;;;;;;;;;;5014158;28;20421;-48
2021/03/08 12:50:27;;;;;;;26.15;14.50;;;;;;;;;;5014723;28;20022;-49
2021/03/08 12:52:53;;;;;;;22.83;14.15;;;;;;;;;;5014653;28;20034;-46
2021/03/08 12:55:19;;;;;;;24.70;15.57;;;;;;;;;;5014515;28;20025;-49
2021/03/08 12:57:46;;;;;;;22.58;13.98;;;;;;;;;;5014463;28;20026;-49
2021/03/08 13:00:12;;;;;;;25.13;13.95;;;;;;;;;;5014417;28;20037;-50
2021/03/08 13:02:38;;;;;;;24.80;14.30;;;;;;;;;;5014641;28;20117;-48
2021/03/08 13:05:05;;;;;;;23.75;14.70;;;;;;;;;;5014459;28;20109;-50
2021/03/08 13:07:31;;;;;;;22.13;13.45;;;;;;;;;;5014366;28;20120;-49
2021/03/08 13:09:57;;;;;;;20.83;14.00;;;;;;;;;;5014495;28;20087;-45
2021/03/08 13:12:23;;;;;;;23.05;14.55;;;;;;;;;;5014155;28;20037;-46
2021/03/08 13:14:49;;;;;;;27.38;16.33;;;;;;;;;;5014368;28;20022;-45
2021/03/08 13:17:15;;;;;;;26.73;15.70;;;;;;;;;;5013809;28;20099;-45
2021/03/08 13:19:41;;;;;;;25.77;14.55;;;;;;;;;;5014302;28;20108;-45
2021/03/08 13:22:07;;;;;;;23.13;13.90;;;;;;;;;;5013974;28;20037;-45
2021/03/08 13:24:34;;;;;;;27.40;15.25;;;;;;;;;;5014037;28;20362;-45
2021/03/08 13:27:06;;;;;;;28.98;15.90;;;;;;;;;;5014041;28;20450;-45
2021/03/08 13:29:36;;;;;;;26.52;14.45;;;;;;;;;;5014070;28;20048;-48
2021/03/08 13:32:06;;;;;;;27.45;16.20;;;;;;;;;;4996398;28;20084;-45
2021/03/08 13:34:33;;;;;;;28.58;15.60;;;;;;;;;;5014197;28;20418;-44
2021/03/08 13:37:00;;;;;;;31.05;15.55;;;;;;;;;;5013898;28;20029;-44
2021/03/08 13:39:26;;;;;;;26.08;14.13;;;;;;;;;;5013731;28;20022;-45
2021/03/08 13:41:52;;;;;;;27.20;17.05;;;;;;;;;;5013702;28;20120;-46
2021/03/08 13:44:18;;;;;;;30.27;16.60;;;;;;;;;;5013627;28;20029;-45
2021/03/08 13:46:44;;;;;;;35.53;18.33;;;;;;;;;;5013195;28;20073;-45
2021/03/08 13:49:11;;;;;;;29.92;17.25;;;;;;;;;;5013356;28;20120;-45
2021/03/08 13:51:37;;;;;;;32.88;18.00;;;;;;;;;;5013746;28;20030;-45
2021/03/08 13:54:03;;;;;;;30.77;16.75;;;;;;;;;;5013629;28;20384;-45
2021/03/08 13:56:30;;;;;;;28.70;16.55;;;;;;;;;;5013922;28;20022;-46
2021/03/08 13:58:56;;;;;;;31.35;17.95;;;;;;;;;;5013590;28;20040;-47
2021/03/08 14:01:22;;;;;;;28.52;16.85;;;;;;;;;;5013223;28;20030;-47
2021/03/08 14:03:49;;;;;;;28.42;17.20;;;;;;;;;;5013166;28;20072;-47
2021/03/08 14:06:17;;;;;;;30.45;16.30;;;;;;;;;;5013170;28;20056;-46
2021/03/08 14:08:43;;;;;;;23.33;14.05;;;;;;;;;;5012865;28;20049;-44
2021/03/08 14:11:09;;;;;;;25.75;16.83;;;;;;;;;;5013361;28;20018;-44
2021/03/08 14:13:36;;;;;;;26.00;15.13;;;;;;;;;;5013025;28;20061;-45
2021/03/08 14:16:02;;;;;;;26.45;15.93;;;;;;;;;;5012752;28;20378;-46
2021/03/08 14:18:28;;;;;;;27.83;15.88;;;;;;;;;;5012906;28;20032;-47
2021/03/08 14:20:54;;;;;;;32.78;18.77;;;;;;;;;;5012968;28;20036;-45
2021/03/08 14:23:20;;;;;;;27.35;15.50;;;;;;;;;;5012815;28;20030;-44
2021/03/08 14:25:47;;;;;;;30.65;16.88;;;;;;;;;;5012827;28;20022;-47